Zim Virginia — 4XFV — position and weather

sailwx.info

Track history (hours):
 
Tides and Currents Weather Stations Pressure Air Temp Water Temp Dewpoint Dewpoint Depression Visibility Wind Speed Wind Dir Waves Ship Positions

Zim Virginia

Last reported at 2017-Oct-15 09:21 UTC. Time now 2017-Oct-17 11:51 UTC.
Position N 38°33' W 024°01'.

Length 294.12 m; beam 32.3 m; draft 13.5 m.

Type: Ship (hazmat cat A). MMSI: 428002000.

Date/timePositionNaut miles runAvg speedWind from/ knotsBaromVisibWave heightAir tempDewpointWater temp
2017-Oct-15 09:21N 38°33' W 024°01'411.5
2017-Oct-15 09:00N 38°34' W 024°06'611.2
2017-Oct-15 08:30N 38°35' W 024°13'1211.5
2017-Oct-15 07:25N 38°36' W 024°28'511.7
2017-Oct-15 07:00N 38°37' W 024°35'611.6
2017-Oct-15 06:30N 38°38' W 024°42'1812.0
2017-Oct-15 04:59N 38°40' W 025°05'611.9
2017-Oct-15 04:30N 38°41' W 025°12'712.0
2017-Oct-15 03:58N 38°42' W 025°21'512.1
2017-Oct-15 03:30N 38°43' W 025°28'612.1
2017-Oct-15 02:59N 38°44' W 025°35'612.1
2017-Oct-15 02:30N 38°45' W 025°43'612.2
2017-Oct-15 02:00N 38°45' W 025°51'612.3
2017-Oct-15 01:30N 38°46' W 025°59'612.5
2017-Oct-15 01:00N 38°47' W 026°06'612.6
2017-Oct-15 00:30N 38°48' W 026°14'612.4
2017-Oct-15 00:00N 38°49' W 026°22'611.8
2017-Oct-14 23:30N 38°49' W 026°30'612.1
2017-Oct-14 23:00N 38°50' W 026°38'612.2
2017-Oct-14 22:30N 38°51' W 026°45'612.2
2017-Oct-14 22:00N 38°51' W 026°53'912.7
2017-Oct-14 21:19N 38°52' W 027°04'412.6
2017-Oct-14 21:00N 38°53' W 027°09'612.2
2017-Oct-14 20:30N 38°53' W 027°17'612.0
2017-Oct-14 20:00N 38°52' W 027°25'611.7
2017-Oct-14 19:30N 38°49' W 027°31'510.9
2017-Oct-14 19:00N 38°45' W 027°36'1 2.4
2017-Oct-14 18:30N 38°46' W 027°37'1 2.2
2017-Oct-14 18:00N 38°46' W 027°39'1 2.1
2017-Oct-14 17:30N 38°46' W 027°40'1 2.0
2017-Oct-14 17:00N 38°46' W 027°41'1 1.9
2017-Oct-14 16:30N 38°47' W 027°42'1 1.7
2017-Oct-14 16:00N 38°47' W 027°44'1 1.7
2017-Oct-14 15:30N 38°47' W 027°45'1 1.8
2017-Oct-14 15:00N 38°47' W 027°46'1 1.8
2017-Oct-14 14:30N 38°47' W 027°47'1 1.5
2017-Oct-14 14:00N 38°47' W 027°48'1 1.3
2017-Oct-14 13:31N 38°47' W 027°49'1 1.8
2017-Oct-14 13:00N 38°47' W 027°50'1 1.7
2017-Oct-14 12:30N 38°48' W 027°51'1 2.0
2017-Oct-14 12:01N 38°48' W 027°52'1 2.2
2017-Oct-14 11:30N 38°48' W 027°53'1 2.2
2017-Oct-14 10:58N 38°49' W 027°55'1 2.1
2017-Oct-14 10:30N 38°49' W 027°56'4 1.6
2017-Oct-14 07:58N 38°53' W 027°57'2 1.6
2017-Oct-14 06:37N 38°54' W 027°59'0 1.5
2017-Oct-14 06:30N 38°55' W 027°59'1 1.0
2017-Oct-14 05:56N 38°55' W 027°60'1 1.3
2017-Oct-14 05:30N 38°55' W 028°00'1 1.3
2017-Oct-14 05:00N 38°55' W 028°01'1 1.4
2017-Oct-14 04:30N 38°55' W 028°02'1 1.6
2017-Oct-14 04:00N 38°56' W 028°03'1 1.6
2017-Oct-14 03:30N 38°56' W 028°04'1 1.5
2017-Oct-14 03:00N 38°56' W 028°05'1 1.4
2017-Oct-14 02:30N 38°56' W 028°06'1 1.6
2017-Oct-14 02:01N 38°57' W 028°06'1 1.6
2017-Oct-14 01:30N 38°57' W 028°07'1 1.8
2017-Oct-14 01:00N 38°57' W 028°09'1 1.6
2017-Oct-14 00:30N 38°57' W 028°10'1 2.2
2017-Oct-13 23:59N 38°57' W 028°11'1 2.1
2017-Oct-13 23:20N 38°57' W 028°13'1 3.4
2017-Oct-13 22:59N 38°57' W 028°14'4012.7
2017-Oct-13 19:51N 39°02' W 029°05'513.4
2017-Oct-13 19:28N 39°03' W 029°11'713.2
2017-Oct-13 18:54N 39°04' W 029°21'513.3
2017-Oct-13 18:30N 39°05' W 029°28'713.4
2017-Oct-13 18:00N 39°06' W 029°36'713.4
2017-Oct-13 17:29N 39°07' W 029°45'713.3
2017-Oct-13 17:00N 39°08' W 029°53'813.3
2017-Oct-13 16:26N 39°09' W 030°03'613.3
2017-Oct-13 16:00N 39°10' W 030°11'713.2
2017-Oct-13 15:30N 39°10' W 030°19'712.8
2017-Oct-13 14:59N 39°10' W 030°28'613.1
2017-Oct-13 14:30N 39°10' W 030°36'613.1
2017-Oct-13 14:00N 39°10' W 030°44'713.2
2017-Oct-13 13:30N 39°11' W 030°53'613.1
2017-Oct-13 13:00N 39°11' W 031°01'713.3
2017-Oct-13 12:30N 39°11' W 031°09'713.3
2017-Oct-13 12:01N 39°11' W 031°18'713.7
2017-Oct-13 11:30N 39°11' W 031°27'713.7
2017-Oct-13 11:00N 39°11' W 031°36'713.6
2017-Oct-13 10:30N 39°12' W 031°44'713.6
2017-Oct-13 10:01N 39°12' W 031°53'713.3
2017-Oct-13 09:30N 39°12' W 032°02'713.3
2017-Oct-13 08:59N 39°12' W 032°11'  
2017-Oct-05 15:30N 31°55' W 080°31'612.6
2017-Oct-05 15:00N 31°56' W 080°38'5 9.7
2017-Oct-05 14:30N 31°58' W 080°43'714.3
2017-Oct-05 14:00N 32°02' W 080°50'511.0
2017-Oct-05 13:30N 32°03' W 080°56'5 9.4
2017-Oct-05 13:00N 32°05' W 081°01'4 7.6
2017-Oct-05 12:30N 32°05' W 081°06'2 4.6
2017-Oct-05 12:00N 32°07' W 081°08'1 1.7
2017-Oct-05 11:30N 32°08' W 081°08'0 0.7
2017-Oct-05 10:57N 32°07' W 081°08'0 0.0
2017-Oct-05 10:27N 32°07' W 081°08'0 0.0
2017-Oct-05 09:57N 32°07' W 081°08'0 0.0
2017-Oct-05 09:27N 32°07' W 081°08'  
Track history (hours):
 
Tides and Currents Weather Stations Pressure Air Temp Water Temp Dewpoint Dewpoint Depression Visibility Wind Speed Wind Dir Waves Ship Positions

Zim Virginia

Last reported at 2017-Oct-15 09:21 UTC. Time now 2017-Oct-17 11:51 UTC.
Position N 38°33' W 024°01'.

Length 294.12 m; beam 32.3 m; draft 13.5 m.

Type: Ship (hazmat cat A). MMSI: 428002000.

Date/timePositionNaut miles runAvg speedWind from/ knotsBaromVisibWave heightAir tempDewpointWater temp
2017-Oct-15 09:21N 38°33' W 024°01'411.5
2017-Oct-15 09:00N 38°34' W 024°06'611.2
2017-Oct-15 08:30N 38°35' W 024°13'1211.5
2017-Oct-15 07:25N 38°36' W 024°28'511.7
2017-Oct-15 07:00N 38°37' W 024°35'611.6
2017-Oct-15 06:30N 38°38' W 024°42'1812.0
2017-Oct-15 04:59N 38°40' W 025°05'611.9
2017-Oct-15 04:30N 38°41' W 025°12'712.0
2017-Oct-15 03:58N 38°42' W 025°21'512.1
2017-Oct-15 03:30N 38°43' W 025°28'612.1
2017-Oct-15 02:59N 38°44' W 025°35'612.1
2017-Oct-15 02:30N 38°45' W 025°43'612.2
2017-Oct-15 02:00N 38°45' W 025°51'612.3
2017-Oct-15 01:30N 38°46' W 025°59'612.5
2017-Oct-15 01:00N 38°47' W 026°06'612.6
2017-Oct-15 00:30N 38°48' W 026°14'612.4
2017-Oct-15 00:00N 38°49' W 026°22'611.8
2017-Oct-14 23:30N 38°49' W 026°30'612.1
2017-Oct-14 23:00N 38°50' W 026°38'612.2
2017-Oct-14 22:30N 38°51' W 026°45'612.2
2017-Oct-14 22:00N 38°51' W 026°53'912.7
2017-Oct-14 21:19N 38°52' W 027°04'412.6
2017-Oct-14 21:00N 38°53' W 027°09'612.2
2017-Oct-14 20:30N 38°53' W 027°17'612.0
2017-Oct-14 20:00N 38°52' W 027°25'611.7
2017-Oct-14 19:30N 38°49' W 027°31'510.9
2017-Oct-14 19:00N 38°45' W 027°36'1 2.4
2017-Oct-14 18:30N 38°46' W 027°37'1 2.2
2017-Oct-14 18:00N 38°46' W 027°39'1 2.1
2017-Oct-14 17:30N 38°46' W 027°40'1 2.0
2017-Oct-14 17:00N 38°46' W 027°41'1 1.9
2017-Oct-14 16:30N 38°47' W 027°42'1 1.7
2017-Oct-14 16:00N 38°47' W 027°44'1 1.7
2017-Oct-14 15:30N 38°47' W 027°45'1 1.8
2017-Oct-14 15:00N 38°47' W 027°46'1 1.8
2017-Oct-14 14:30N 38°47' W 027°47'1 1.5
2017-Oct-14 14:00N 38°47' W 027°48'1 1.3
2017-Oct-14 13:31N 38°47' W 027°49'1 1.8
2017-Oct-14 13:00N 38°47' W 027°50'1 1.7
2017-Oct-14 12:30N 38°48' W 027°51'1 2.0
2017-Oct-14 12:01N 38°48' W 027°52'1 2.2
2017-Oct-14 11:30N 38°48' W 027°53'1 2.2
2017-Oct-14 10:58N 38°49' W 027°55'1 2.1
2017-Oct-14 10:30N 38°49' W 027°56'4 1.6
2017-Oct-14 07:58N 38°53' W 027°57'2 1.6
2017-Oct-14 06:37N 38°54' W 027°59'0 1.5
2017-Oct-14 06:30N 38°55' W 027°59'1 1.0
2017-Oct-14 05:56N 38°55' W 027°60'1 1.3
2017-Oct-14 05:30N 38°55' W 028°00'1 1.3
2017-Oct-14 05:00N 38°55' W 028°01'1 1.4
2017-Oct-14 04:30N 38°55' W 028°02'1 1.6
2017-Oct-14 04:00N 38°56' W 028°03'1 1.6
2017-Oct-14 03:30N 38°56' W 028°04'1 1.5
2017-Oct-14 03:00N 38°56' W 028°05'1 1.4
2017-Oct-14 02:30N 38°56' W 028°06'1 1.6
2017-Oct-14 02:01N 38°57' W 028°06'1 1.6
2017-Oct-14 01:30N 38°57' W 028°07'1 1.8
2017-Oct-14 01:00N 38°57' W 028°09'1 1.6
2017-Oct-14 00:30N 38°57' W 028°10'1 2.2
2017-Oct-13 23:59N 38°57' W 028°11'1 2.1
2017-Oct-13 23:20N 38°57' W 028°13'1 3.4
2017-Oct-13 22:59N 38°57' W 028°14'4012.7
2017-Oct-13 19:51N 39°02' W 029°05'513.4
2017-Oct-13 19:28N 39°03' W 029°11'713.2
2017-Oct-13 18:54N 39°04' W 029°21'513.3
2017-Oct-13 18:30N 39°05' W 029°28'713.4
2017-Oct-13 18:00N 39°06' W 029°36'713.4
2017-Oct-13 17:29N 39°07' W 029°45'713.3
2017-Oct-13 17:00N 39°08' W 029°53'813.3
2017-Oct-13 16:26N 39°09' W 030°03'613.3
2017-Oct-13 16:00N 39°10' W 030°11'713.2
2017-Oct-13 15:30N 39°10' W 030°19'712.8
2017-Oct-13 14:59N 39°10' W 030°28'613.1
2017-Oct-13 14:30N 39°10' W 030°36'613.1
2017-Oct-13 14:00N 39°10' W 030°44'713.2
2017-Oct-13 13:30N 39°11' W 030°53'613.1
2017-Oct-13 13:00N 39°11' W 031°01'713.3
2017-Oct-13 12:30N 39°11' W 031°09'713.3
2017-Oct-13 12:01N 39°11' W 031°18'713.7
2017-Oct-13 11:30N 39°11' W 031°27'713.7
2017-Oct-13 11:00N 39°11' W 031°36'713.6
2017-Oct-13 10:30N 39°12' W 031°44'713.6
2017-Oct-13 10:01N 39°12' W 031°53'713.3
2017-Oct-13 09:30N 39°12' W 032°02'713.3
2017-Oct-13 08:59N 39°12' W 032°11'  
2017-Oct-05 15:30N 31°55' W 080°31'612.6
2017-Oct-05 15:00N 31°56' W 080°38'5 9.7
2017-Oct-05 14:30N 31°58' W 080°43'714.3
2017-Oct-05 14:00N 32°02' W 080°50'511.0
2017-Oct-05 13:30N 32°03' W 080°56'5 9.4
2017-Oct-05 13:00N 32°05' W 081°01'4 7.6
2017-Oct-05 12:30N 32°05' W 081°06'2 4.6
2017-Oct-05 12:00N 32°07' W 081°08'1 1.7
2017-Oct-05 11:30N 32°08' W 081°08'0 0.7
2017-Oct-05 10:57N 32°07' W 081°08'0 0.0
2017-Oct-05 10:27N 32°07' W 081°08'0 0.0
2017-Oct-05 09:57N 32°07' W 081°08'0 0.0
2017-Oct-05 09:27N 32°07' W 081°08'  

Dump ship's entire track history